Terminal Aerodrome Forecast
Issued by NWS Louisville, KY

Home | Current Version | Previous Version | Text Only | Print | Product List | Glossary On
Versions: 1 2 3 4 5 6 7 8 9 10 11 12 13 14 15 16 17 18 19 20 21
000
FTUS43 KLMK 192320
TAFLEX
TAF
KLEX 192320Z 2000/2024 12008KT P6SM -SHRA OVC070
      TEMPO 2000/2003 5SM BR OVC022
     FM200300 13010KT 4SM -SHRA BR OVC015
     FM200600 14009KT 3SM RA BR OVC007
     FM201400 22008KT P6SM BKN010
     FM201900 22009KT P6SM BKN035=

USA.gov is the U.S. government's official web portal to all federal, state and local government web resources and services.